createdAt,value
2018-02-21T00:01:13.620Z,27.60
2018-02-21T00:03:41.109Z,27.50
2018-02-21T00:06:08.632Z,28.60
2018-02-21T00:08:36.150Z,29.47
2018-02-21T00:11:03.651Z,27.77
2018-02-21T00:13:31.212Z,28.47
2018-02-21T00:15:59.495Z,28.23
2018-02-21T00:18:27.034Z,29.43
2018-02-21T00:20:54.565Z,28.67
2018-02-21T00:23:22.112Z,29.17
2018-02-21T00:25:49.645Z,28.37
2018-02-21T00:28:17.198Z,28.40
2018-02-21T00:30:44.705Z,28.47
2018-02-21T00:33:12.218Z,26.60
2018-02-21T00:35:39.741Z,27.33
2018-02-21T00:38:07.267Z,29.20
2018-02-21T00:40:34.808Z,29.10
2018-02-21T00:43:02.350Z,27.70
2018-02-21T00:45:30.018Z,28.30
2018-02-21T00:47:57.519Z,27.70
2018-02-21T00:50:25.047Z,28.30
2018-02-21T00:52:52.555Z,28.23
2018-02-21T00:55:20.113Z,27.47
2018-02-21T00:57:48.428Z,26.17
2018-02-21T01:00:16.000Z,27.67
2018-02-21T01:02:43.517Z,27.67
2018-02-21T01:05:11.042Z,27.97
2018-02-21T01:07:38.566Z,26.90
2018-02-21T01:10:06.067Z,27.03
2018-02-21T01:12:33.621Z,27.07
2018-02-21T01:15:01.196Z,27.03
2018-02-21T01:17:29.465Z,27.77
2018-02-21T01:19:57.013Z,26.33
2018-02-21T01:22:24.552Z,27.93
2018-02-21T01:24:52.059Z,27.43
2018-02-21T01:27:19.598Z,28.30
2018-02-21T01:29:47.877Z,26.50
2018-02-21T01:32:16.160Z,26.23
2018-02-21T01:34:44.464Z,28.33
2018-02-21T01:37:11.983Z,25.93
2018-02-21T01:39:40.265Z,26.37
2018-02-21T01:42:08.569Z,26.93
2018-02-21T01:44:36.106Z,25.77
2018-02-21T01:47:03.626Z,25.40
2018-02-21T01:49:31.162Z,25.63
2018-02-21T01:51:58.735Z,25.17
2018-02-21T01:54:26.237Z,26.40
2018-02-21T01:56:54.529Z,27.10
2018-02-21T01:59:22.040Z,24.57
2018-02-21T02:01:49.572Z,25.33
2018-02-21T02:04:17.087Z,25.63
2018-02-21T02:06:45.389Z,25.63
2018-02-21T02:09:12.927Z,24.27
2018-02-21T02:11:40.461Z,24.63
2018-02-21T02:14:07.979Z,25.00
2018-02-21T02:16:35.494Z,24.43
2018-02-21T02:19:03.794Z,26.23
2018-02-21T02:21:31.312Z,25.97
2018-02-21T02:23:58.813Z,23.83
2018-02-21T02:26:26.366Z,25.10
2018-02-21T02:28:53.886Z,25.13
2018-02-21T02:31:21.374Z,25.17
2018-02-21T02:33:48.889Z,24.33
2018-02-21T02:36:16.392Z,25.17
2018-02-21T02:38:55.686Z,24.23
2018-02-21T02:41:23.218Z,24.63
2018-02-21T02:43:51.506Z,24.70
2018-02-21T02:46:19.026Z,23.87
2018-02-21T02:48:46.550Z,24.80
2018-02-21T02:51:14.830Z,25.07
2018-02-21T02:53:43.128Z,24.63
2018-02-21T02:56:10.628Z,24.47
2018-02-21T02:58:38.134Z,24.77
2018-02-21T03:01:06.448Z,24.07
2018-02-21T03:03:34.732Z,24.37
2018-02-21T03:06:02.239Z,24.80
2018-02-21T03:08:30.546Z,25.20
2018-02-21T03:10:58.060Z,23.80
2018-02-21T03:13:25.570Z,23.53
2018-02-21T03:15:53.099Z,25.00
2018-02-21T03:18:20.611Z,24.67
2018-02-21T03:20:48.118Z,24.60
2018-02-21T03:23:15.643Z,23.57
2018-02-21T03:25:43.141Z,24.10
2018-02-21T03:28:10.648Z,24.07
2018-02-21T03:30:38.177Z,24.07
2018-02-21T03:33:05.774Z,24.57
2018-02-21T03:35:33.272Z,22.67
2018-02-21T03:38:00.798Z,23.63
2018-02-21T03:40:28.311Z,23.83
2018-02-21T03:42:55.823Z,23.37
2018-02-21T03:45:23.369Z,22.63
2018-02-21T03:47:50.885Z,22.60
2018-02-21T03:50:18.394Z,23.00
2018-02-21T03:52:46.697Z,23.27
2018-02-21T03:55:14.216Z,23.97
2018-02-21T03:57:41.744Z,22.63
2018-02-21T04:00:13.490Z,24.10
2018-02-21T04:02:41.107Z,21.83
2018-02-21T04:05:08.628Z,24.10
2018-02-21T04:07:36.138Z,23.23
2018-02-21T04:10:04.406Z,22.67
2018-02-21T04:12:31.902Z,23.53
2018-02-21T04:14:59.430Z,23.13
2018-02-21T04:17:27.732Z,23.40
2018-02-21T04:19:55.230Z,23.03
2018-02-21T04:22:22.760Z,24.50
2018-02-21T04:24:50.263Z,24.23
2018-02-21T04:27:18.687Z,23.13
2018-02-21T04:29:46.202Z,23.47
2018-02-21T04:32:14.483Z,23.13
2018-02-21T04:34:42.754Z,23.43
2018-02-21T04:37:11.069Z,24.93
2018-02-21T04:39:38.638Z,22.93
2018-02-21T04:42:06.141Z,23.90
2018-02-21T04:44:34.431Z,23.27
2018-02-21T04:47:02.727Z,23.70
2018-02-21T04:49:30.232Z,23.70
2018-02-21T04:51:57.750Z,23.77
2018-02-21T04:54:27.166Z,24.77
2018-02-21T04:57:15.560Z,24.00
2018-02-21T04:59:46.522Z,23.50
2018-02-21T05:02:14.064Z,23.17
2018-02-21T05:04:42.356Z,24.10
2018-02-21T05:07:10.707Z,23.93
2018-02-21T05:09:38.201Z,22.73
2018-02-21T05:12:05.716Z,23.73
2018-02-21T05:14:33.227Z,24.37
2018-02-21T05:17:00.742Z,24.20
2018-02-21T05:19:29.054Z,23.03
2018-02-21T05:21:56.558Z,23.57
2018-02-21T05:24:24.059Z,24.27
2018-02-21T05:26:51.591Z,24.20
2018-02-21T05:29:19.099Z,22.77
2018-02-21T05:31:46.615Z,23.70
2018-02-21T05:34:14.918Z,22.73
2018-02-21T05:36:42.463Z,25.43
2018-02-21T05:39:10.755Z,27.30
2018-02-21T05:41:38.286Z,25.07
2018-02-21T05:44:06.566Z,26.03
2018-02-21T05:46:34.090Z,25.03
2018-02-21T05:49:01.630Z,24.37
2018-02-21T05:51:29.897Z,23.43
2018-02-21T05:53:57.399Z,23.20
2018-02-21T05:56:24.927Z,22.80
2018-02-21T05:58:52.446Z,24.53
2018-02-21T06:01:19.992Z,23.87
2018-02-21T06:03:48.282Z,22.67
2018-02-21T06:06:15.783Z,23.37
2018-02-21T06:08:43.299Z,22.97
2018-02-21T06:11:10.832Z,23.60
2018-02-21T06:13:39.126Z,22.87
2018-02-21T06:16:06.633Z,23.30
2018-02-21T06:18:34.203Z,24.03
2018-02-21T06:21:01.721Z,23.70
2018-02-21T06:23:29.231Z,24.33
2018-02-21T06:25:56.755Z,24.23
2018-02-21T06:28:24.259Z,23.97
2018-02-21T06:30:51.802Z,23.93
2018-02-21T06:33:19.323Z,25.23
2018-02-21T06:35:46.824Z,24.43
2018-02-21T06:38:14.349Z,23.60
2018-02-21T06:40:41.871Z,23.20
2018-02-21T06:43:09.427Z,23.07
2018-02-21T06:45:36.967Z,28.60
2018-02-21T06:48:05.270Z,33.27
2018-02-21T06:50:32.778Z,27.50
2018-02-21T06:53:00.286Z,25.13
2018-02-21T06:55:27.955Z,22.17
2018-02-21T06:57:55.457Z,23.30
2018-02-21T07:00:24.134Z,24.30
2018-02-21T07:02:52.484Z,23.23
2018-02-21T07:05:19.998Z,22.83
2018-02-21T07:07:47.504Z,24.43
2018-02-21T07:10:15.047Z,22.67
2018-02-21T07:12:42.578Z,23.57
2018-02-21T07:15:10.087Z,24.67
2018-02-21T07:17:37.613Z,23.67
2018-02-21T07:20:05.115Z,23.77
2018-02-21T07:22:32.638Z,25.40
2018-02-21T07:25:00.169Z,25.37
2018-02-21T07:27:28.452Z,24.43
2018-02-21T07:29:55.978Z,23.47
2018-02-21T07:32:23.520Z,24.07
2018-02-21T07:34:51.050Z,24.43
2018-02-21T07:37:18.544Z,24.77
2018-02-21T07:39:46.063Z,22.93
2018-02-21T07:42:13.676Z,24.30
2018-02-21T07:44:41.218Z,24.33
2018-02-21T07:47:08.740Z,24.23
2018-02-21T07:49:36.252Z,24.93
2018-02-21T07:52:03.747Z,26.27
2018-02-21T07:54:31.289Z,24.10
2018-02-21T07:56:58.852Z,25.87
2018-02-21T07:59:26.505Z,25.40
2018-02-21T08:01:54.783Z,24.63
2018-02-21T08:04:22.292Z,25.00
2018-02-21T08:06:49.821Z,25.50
2018-02-21T08:09:17.363Z,25.47
2018-02-21T08:11:45.042Z,25.77
2018-02-21T08:14:12.605Z,25.53
2018-02-21T08:16:40.199Z,25.17
2018-02-21T08:19:07.791Z,25.87
2018-02-21T08:21:36.192Z,26.00
2018-02-21T08:24:03.850Z,24.57
2018-02-21T08:26:31.368Z,25.40
2018-02-21T08:28:59.653Z,26.90
2018-02-21T08:31:27.177Z,26.00
2018-02-21T08:33:55.515Z,24.80
2018-02-21T08:36:23.212Z,24.73
2018-02-21T08:38:51.262Z,24.60
2018-02-21T08:41:18.763Z,25.23
2018-02-21T08:43:46.282Z,25.43
2018-02-21T08:46:13.841Z,24.13
2018-02-21T08:48:41.339Z,24.03
2018-02-21T08:51:08.846Z,22.63
2018-02-21T08:53:36.397Z,23.47
2018-02-21T08:56:03.908Z,24.50
2018-02-21T08:58:31.432Z,25.10
2018-02-21T09:00:59.072Z,24.07
2018-02-21T09:03:26.580Z,24.23
2018-02-21T09:05:54.086Z,24.47
2018-02-21T09:08:22.369Z,23.23
2018-02-21T09:10:49.884Z,24.53
2018-02-21T09:13:17.408Z,24.27
2018-02-21T09:15:44.926Z,24.23
2018-02-21T09:18:12.451Z,24.10
2018-02-21T09:20:39.952Z,22.83
2018-02-21T09:23:08.229Z,23.67
2018-02-21T09:25:35.736Z,24.30
2018-02-21T09:28:03.231Z,23.43
2018-02-21T09:30:31.526Z,23.50
2018-02-21T09:32:59.033Z,23.53
2018-02-21T09:35:26.535Z,23.83
2018-02-21T09:37:54.091Z,22.93
2018-02-21T09:40:22.346Z,23.93
2018-02-21T09:42:49.882Z,23.37
2018-02-21T09:45:17.404Z,24.30
2018-02-21T09:47:44.914Z,24.43
2018-02-21T09:50:12.428Z,24.07
2018-02-21T09:52:39.956Z,22.80
2018-02-21T09:55:08.227Z,24.37
2018-02-21T09:57:36.483Z,24.53
2018-02-21T10:00:05.728Z,23.40
2018-02-21T10:02:33.238Z,23.43
2018-02-21T10:05:00.745Z,23.80
2018-02-21T10:07:28.288Z,24.17
2018-02-21T10:09:55.817Z,24.37
2018-02-21T10:12:23.317Z,24.13
2018-02-21T10:14:50.841Z,24.53
2018-02-21T10:17:19.123Z,24.07
2018-02-21T10:19:47.383Z,25.50
2018-02-21T10:22:15.675Z,23.10
2018-02-21T10:24:43.955Z,23.23
2018-02-21T10:27:11.502Z,23.37
2018-02-21T10:29:39.819Z,22.47
2018-02-21T10:32:07.377Z,22.63
2018-02-21T10:34:34.882Z,24.03
2018-02-21T10:37:02.491Z,23.57
2018-02-21T10:39:29.992Z,24.77
2018-02-21T10:41:57.503Z,23.03
2018-02-21T10:44:25.031Z,22.57
2018-02-21T10:46:53.475Z,22.30
2018-02-21T10:49:20.994Z,23.80
2018-02-21T10:51:48.572Z,23.50
2018-02-21T10:54:16.092Z,22.10
2018-02-21T10:56:44.397Z,23.63
2018-02-21T10:59:11.920Z,22.23
2018-02-21T11:01:39.486Z,22.43
2018-02-21T11:04:07.769Z,22.03
2018-02-21T11:06:36.052Z,23.80
2018-02-21T11:09:04.466Z,22.73
2018-02-21T11:11:31.985Z,23.63
2018-02-21T11:14:00.368Z,23.83
2018-02-21T11:16:27.975Z,23.83
2018-02-21T11:18:55.472Z,22.33
2018-02-21T11:21:23.866Z,22.83
2018-02-21T11:23:51.365Z,22.53
2018-02-21T11:26:18.881Z,22.73
2018-02-21T11:28:46.405Z,23.00
2018-02-21T11:31:13.929Z,23.00
2018-02-21T11:33:41.564Z,23.17
2018-02-21T11:36:09.214Z,23.23
2018-02-21T11:38:36.876Z,22.87
2018-02-21T11:41:04.388Z,23.83
2018-02-21T11:43:31.903Z,24.23
2018-02-21T11:45:59.421Z,23.87
2018-02-21T11:48:26.934Z,23.00
2018-02-21T11:50:54.508Z,23.00
2018-02-21T11:53:21.971Z,23.57
2018-02-21T11:55:49.550Z,23.50
2018-02-21T11:58:17.461Z,23.07
2018-02-21T12:00:44.968Z,22.43
2018-02-21T12:03:12.470Z,22.03
2018-02-21T12:05:40.756Z,22.37
2018-02-21T12:08:08.290Z,21.83
2018-02-21T12:10:35.804Z,21.63
2018-02-21T12:13:03.756Z,23.20
2018-02-21T12:15:31.262Z,22.90
2018-02-21T12:17:58.780Z,21.80
2018-02-21T12:20:26.346Z,20.93
2018-02-21T12:22:53.867Z,22.10
2018-02-21T12:25:21.410Z,21.43
2018-02-21T12:27:48.968Z,22.40
2018-02-21T12:30:17.247Z,23.63
2018-02-21T12:32:46.576Z,22.03
2018-02-21T12:35:14.449Z,23.20
2018-02-21T12:37:42.005Z,22.17
2018-02-21T12:43:08.402Z,21.27
2018-02-21T12:45:35.926Z,22.83
2018-02-21T12:48:03.454Z,21.87
2018-02-21T12:50:30.957Z,21.80
2018-02-21T12:52:58.481Z,22.00
2018-02-21T12:55:26.096Z,22.87
2018-02-21T12:57:53.706Z,22.27
2018-02-21T13:00:21.131Z,22.57
2018-02-21T13:02:49.454Z,23.10
2018-02-21T13:05:17.025Z,23.17
2018-02-21T13:07:44.834Z,22.30
2018-02-21T13:10:12.498Z,23.30
2018-02-21T13:12:39.986Z,23.60
2018-02-21T13:15:07.538Z,22.80
2018-02-21T13:17:35.068Z,22.70
2018-02-21T13:20:02.584Z,22.37
2018-02-21T13:22:30.112Z,22.40
2018-02-21T13:24:57.610Z,21.57
2018-02-21T13:27:25.150Z,22.70
2018-02-21T13:29:52.726Z,22.90
2018-02-21T13:32:20.222Z,23.80
2018-02-21T13:34:47.739Z,23.43
2018-02-21T13:37:15.567Z,24.10
2018-02-21T13:39:43.074Z,23.17
2018-02-21T13:42:10.558Z,23.13
2018-02-21T13:44:38.859Z,23.00
2018-02-21T13:47:06.353Z,22.23
2018-02-21T13:49:33.878Z,23.20
2018-02-21T13:52:02.178Z,21.70
2018-02-21T13:54:29.679Z,24.87
2018-02-21T13:56:58.303Z,22.43
2018-02-21T13:59:26.133Z,23.33
2018-02-21T14:01:53.628Z,22.10
2018-02-21T14:04:21.135Z,22.83
2018-02-21T14:06:49.545Z,22.20
2018-02-21T14:09:17.077Z,22.10
2018-02-21T14:11:45.343Z,21.83
2018-02-21T14:14:12.904Z,21.80
2018-02-21T14:16:40.411Z,22.00
2018-02-21T14:19:08.025Z,22.57
2018-02-21T14:21:36.332Z,22.60
2018-02-21T14:24:04.596Z,21.30
2018-02-21T14:26:32.089Z,20.30
2018-02-21T14:28:59.644Z,21.13
2018-02-21T14:31:27.150Z,20.40
2018-02-21T14:33:55.442Z,20.77
2018-02-21T14:36:22.975Z,19.07
2018-02-21T14:38:50.516Z,21.97
2018-02-21T14:41:18.019Z,19.70
2018-02-21T14:43:45.547Z,19.67
2018-02-21T14:46:13.043Z,19.10
2018-02-21T14:48:40.557Z,19.70
2018-02-21T14:51:08.095Z,18.80
2018-02-21T14:53:35.591Z,19.93
2018-02-21T14:56:03.869Z,19.57
2018-02-21T14:58:32.166Z,20.67
2018-02-21T15:00:59.672Z,19.40
2018-02-21T15:03:27.164Z,20.13
2018-02-21T15:05:54.701Z,21.30
2018-02-21T15:08:22.216Z,19.90
2018-02-21T15:10:49.771Z,19.40
2018-02-21T15:13:17.293Z,19.97
2018-02-21T15:15:45.589Z,19.40
2018-02-21T15:18:13.111Z,20.10
2018-02-21T15:20:40.723Z,19.67
2018-02-21T15:23:08.259Z,19.90
2018-02-21T15:25:35.763Z,19.97
2018-02-21T15:28:03.296Z,19.27
2018-02-21T15:30:30.800Z,19.00
2018-02-21T15:32:58.315Z,19.83
2018-02-21T15:35:25.838Z,19.23
2018-02-21T15:37:54.213Z,19.40
2018-02-21T15:40:21.807Z,20.23
2018-02-21T15:42:49.377Z,19.57
2018-02-21T15:45:16.911Z,19.77
2018-02-21T15:47:44.435Z,19.80
2018-02-21T15:50:11.975Z,18.53
2018-02-21T15:52:39.472Z,19.23
2018-02-21T15:55:07.736Z,19.53
2018-02-21T15:57:36.054Z,19.93
2018-02-21T16:00:03.570Z,19.50
2018-02-21T16:02:31.200Z,20.27
2018-02-21T16:04:58.728Z,20.23
2018-02-21T16:07:26.223Z,19.20
2018-02-21T16:09:53.817Z,20.47
2018-02-21T16:12:22.162Z,20.35
2018-02-21T16:14:49.673Z,19.87
2018-02-21T16:17:17.238Z,18.90
2018-02-21T16:19:44.782Z,18.73
2018-02-21T16:22:13.010Z,17.73
2018-02-21T16:24:41.296Z,18.90
2018-02-21T16:27:08.856Z,18.93
2018-02-21T16:29:36.347Z,18.23
2018-02-21T16:32:03.904Z,17.80
2018-02-21T16:34:31.446Z,17.60
2018-02-21T16:36:59.732Z,16.93
2018-02-21T16:39:28.263Z,16.73
2018-02-21T16:41:55.796Z,17.50
2018-02-21T16:44:23.315Z,16.47
2018-02-21T16:46:51.621Z,16.30
2018-02-21T16:49:19.181Z,16.20
2018-02-21T16:51:47.079Z,15.97
2018-02-21T16:54:20.387Z,16.13
2018-02-21T16:56:48.264Z,16.20
2018-02-21T16:59:15.823Z,17.10
2018-02-21T17:01:43.358Z,15.80
2018-02-21T17:04:10.915Z,16.67
2018-02-21T17:06:38.414Z,16.80
2018-02-21T17:09:06.991Z,16.10
2018-02-21T17:11:35.292Z,16.40
2018-02-21T17:14:03.560Z,16.23
2018-02-21T17:16:31.839Z,16.80
2018-02-21T17:19:00.326Z,18.37
2018-02-21T17:21:28.919Z,18.03
2018-02-21T17:23:56.417Z,17.10
2018-02-21T17:26:23.916Z,17.03
2018-02-21T17:28:52.197Z,15.93
2018-02-21T17:31:20.476Z,17.70
2018-02-21T17:33:49.186Z,16.70
2018-02-21T17:36:16.706Z,16.20
2018-02-21T17:38:44.984Z,15.93
2018-02-21T17:41:18.281Z,17.00
2018-02-21T17:43:46.552Z,16.20
2018-02-21T17:46:15.166Z,15.43
2018-02-21T17:48:42.666Z,16.33
2018-02-21T17:51:10.182Z,16.27
2018-02-21T17:53:37.695Z,15.97
2018-02-21T17:56:05.189Z,16.57
2018-02-21T17:58:33.041Z,15.40
2018-02-21T18:01:00.533Z,16.53
2018-02-21T18:03:28.987Z,16.37
2018-02-21T18:05:56.510Z,16.33
2018-02-21T18:08:24.048Z,16.97
2018-02-21T18:10:51.982Z,16.83
2018-02-21T18:13:19.509Z,17.03
2018-02-21T18:15:47.801Z,17.40
2018-02-21T18:18:15.311Z,18.20
2018-02-21T18:20:42.834Z,17.93
2018-02-21T18:23:10.809Z,18.77
2018-02-21T18:25:38.320Z,19.13
2018-02-21T18:28:05.829Z,18.37
2018-02-21T18:30:33.361Z,18.50
2018-02-21T18:33:00.899Z,18.47
2018-02-21T18:35:29.445Z,19.27
2018-02-21T18:37:56.952Z,18.87
2018-02-21T18:40:25.222Z,19.33
2018-02-21T18:42:52.759Z,19.33
2018-02-21T18:45:20.283Z,18.00
2018-02-21T18:47:48.079Z,18.90
2018-02-21T18:50:15.590Z,18.57
2018-02-21T18:52:43.117Z,16.90
2018-02-21T18:55:10.697Z,17.13
2018-02-21T18:57:38.236Z,17.57
2018-02-21T19:00:06.756Z,17.27
2018-02-21T19:02:34.306Z,16.33
2018-02-21T19:05:01.864Z,17.77
2018-02-21T19:07:29.410Z,16.60
2018-02-21T19:09:56.937Z,16.73
2018-02-21T19:12:24.777Z,25.40
2018-02-21T19:14:52.371Z,17.30
2018-02-21T19:17:20.693Z,16.20
2018-02-21T19:19:48.225Z,17.47
2018-02-21T19:22:15.750Z,17.53
2018-02-21T19:24:43.534Z,18.17
2018-02-21T19:27:12.742Z,16.87
2018-02-21T19:29:40.290Z,17.80
2018-02-21T19:32:08.620Z,18.63
2018-02-21T19:34:36.130Z,17.93
2018-02-21T19:37:04.762Z,17.27
2018-02-21T19:39:32.303Z,17.63
2018-02-21T19:41:59.837Z,18.43
2018-02-21T19:44:27.647Z,17.30
2018-02-21T19:46:55.196Z,17.10
2018-02-21T19:49:22.719Z,18.33
2018-02-21T19:51:50.271Z,18.87
2018-02-21T19:54:17.810Z,18.17
2018-02-21T19:56:45.648Z,17.60
2018-02-21T19:59:13.182Z,17.60
2018-02-21T20:01:40.740Z,18.03
2018-02-21T20:04:08.742Z,17.37
2018-02-21T20:06:36.289Z,17.50
2018-02-21T20:09:03.846Z,16.70
2018-02-21T20:11:31.450Z,16.50
2018-02-21T20:13:59.003Z,17.73
2018-02-21T20:16:27.618Z,16.40
2018-02-21T20:18:55.139Z,16.43
2018-02-21T20:21:22.688Z,16.67
2018-02-21T20:23:50.248Z,17.73
2018-02-21T20:26:17.778Z,16.07
2018-02-21T20:28:45.617Z,17.10
2018-02-21T20:31:13.167Z,25.47
2018-02-21T20:33:40.719Z,28.67
2018-02-21T20:36:09.069Z,17.33
2018-02-21T20:38:36.623Z,17.60
2018-02-21T20:41:04.691Z,17.37
2018-02-21T20:43:32.222Z,16.33
2018-02-21T20:45:59.821Z,17.00
2018-02-21T20:48:27.640Z,16.73
2018-02-21T20:50:55.160Z,17.30
2018-02-21T20:53:22.703Z,18.60
2018-02-21T20:55:51.156Z,17.43
2018-02-21T20:58:18.660Z,18.93
2018-02-21T21:00:47.209Z,17.93
2018-02-21T21:03:14.763Z,18.43
2018-02-21T21:05:42.297Z,19.17
2018-02-21T21:08:09.871Z,17.37
2018-02-21T21:10:37.422Z,17.87
2018-02-21T21:13:05.219Z,18.37
2018-02-21T21:15:32.764Z,17.17
2018-02-21T21:18:00.283Z,18.33
2018-02-21T21:20:27.815Z,16.93
2018-02-21T21:22:56.660Z,17.07
2018-02-21T21:25:24.493Z,17.07
2018-02-21T21:27:52.001Z,16.60
2018-02-21T21:30:19.521Z,17.87
2018-02-21T21:32:47.069Z,18.80
2018-02-21T21:35:14.575Z,17.67
2018-02-21T21:37:42.387Z,18.33
2018-02-21T21:40:09.896Z,18.63
2018-02-21T21:42:37.415Z,18.97
2018-02-21T21:45:04.936Z,18.40
2018-02-21T21:47:33.208Z,19.90
2018-02-21T21:50:01.067Z,19.00
2018-02-21T21:52:28.663Z,19.70
2018-02-21T21:54:56.923Z,18.50
2018-02-21T21:57:25.203Z,19.67
2018-02-21T21:59:52.747Z,19.17
2018-02-21T22:02:20.651Z,18.60
2018-02-21T22:04:48.164Z,17.50
2018-02-21T22:07:15.672Z,18.30
2018-02-21T22:09:43.180Z,18.07
2018-02-21T22:12:10.684Z,16.27
2018-02-21T22:14:38.535Z,16.93
2018-02-21T22:17:06.047Z,18.17
2018-02-21T22:19:33.564Z,18.93
2018-02-21T22:22:01.346Z,19.30
2018-02-21T22:24:28.880Z,20.27
2018-02-21T22:26:56.394Z,21.80
2018-02-21T22:29:24.287Z,20.13
2018-02-21T22:31:51.800Z,19.67
2018-02-21T22:34:19.318Z,17.73
2018-02-21T22:36:47.164Z,19.50
2018-02-21T22:39:15.457Z,18.27
2018-02-21T22:41:42.984Z,19.57
2018-02-21T22:44:10.875Z,19.27
2018-02-21T22:46:38.444Z,17.93
2018-02-21T22:49:05.944Z,17.97
2018-02-21T22:51:33.794Z,17.87
2018-02-21T22:54:01.298Z,18.03
2018-02-21T22:56:29.621Z,16.97
2018-02-21T22:58:57.569Z,17.90
2018-02-21T23:01:25.068Z,18.50
2018-02-21T23:03:52.572Z,18.83
2018-02-21T23:06:21.164Z,18.03
2018-02-21T23:08:48.716Z,18.07
2018-02-21T23:11:16.215Z,17.87
2018-02-21T23:13:44.168Z,16.83
2018-02-21T23:16:11.684Z,19.13
2018-02-21T23:18:39.963Z,18.27
2018-02-21T23:21:08.640Z,19.17
2018-02-21T23:23:36.927Z,18.13
2018-02-21T23:26:05.236Z,18.67
2018-02-21T23:28:33.102Z,17.67
2018-02-21T23:31:00.608Z,18.10
2018-02-21T23:33:28.132Z,19.60
2018-02-21T23:35:55.986Z,18.83
2018-02-21T23:38:23.491Z,17.97
2018-02-21T23:40:51.774Z,20.37
2018-02-21T23:43:20.370Z,17.90
2018-02-21T23:45:47.916Z,18.43
2018-02-21T23:48:16.198Z,19.33
2018-02-21T23:50:44.847Z,19.30
2018-02-21T23:53:12.351Z,18.60
2018-02-21T23:55:39.870Z,19.50
2018-02-21T23:58:07.683Z,18.47
